sensor_id;sensor_type;location;lat;lon;timestamp;P1;durP1;ratioP1;P2;durP2;ratioP2
11807;SDS011;5961;42.640;23.380;2024-02-28T00:01:20;40.73;;;18.67;;
11807;SDS011;5961;42.640;23.380;2024-02-28T00:03:46;40.87;;;19.53;;
11807;SDS011;5961;42.640;23.380;2024-02-28T00:06:15;41.60;;;20.57;;
11807;SDS011;5961;42.640;23.380;2024-02-28T00:08:42;43.83;;;20.73;;
11807;SDS011;5961;42.640;23.380;2024-02-28T00:11:09;45.63;;;21.20;;
11807;SDS011;5961;42.640;23.380;2024-02-28T00:13:35;42.07;;;19.93;;
11807;SDS011;5961;42.640;23.380;2024-02-28T00:16:03;43.17;;;19.67;;
11807;SDS011;5961;42.640;23.380;2024-02-28T00:18:30;47.73;;;19.50;;
11807;SDS011;5961;42.640;23.380;2024-02-28T00:20:57;38.03;;;19.97;;
11807;SDS011;5961;42.640;23.380;2024-02-28T00:23:24;43.43;;;19.80;;
11807;SDS011;5961;42.640;23.380;2024-02-28T00:25:51;44.70;;;20.93;;
11807;SDS011;5961;42.640;23.380;2024-02-28T00:28:18;39.57;;;20.30;;
11807;SDS011;5961;42.640;23.380;2024-02-28T00:30:44;45.83;;;20.80;;
11807;SDS011;5961;42.640;23.380;2024-02-28T00:33:12;44.97;;;20.50;;
11807;SDS011;5961;42.640;23.380;2024-02-28T00:35:39;45.93;;;21.30;;
11807;SDS011;5961;42.640;23.380;2024-02-28T00:38:06;43.37;;;21.00;;
11807;SDS011;5961;42.640;23.380;2024-02-28T00:40:33;44.73;;;21.37;;
11807;SDS011;5961;42.640;23.380;2024-02-28T00:42:59;41.90;;;20.63;;
11807;SDS011;5961;42.640;23.380;2024-02-28T00:45:27;44.63;;;21.43;;
11807;SDS011;5961;42.640;23.380;2024-02-28T00:47:53;42.93;;;21.03;;
11807;SDS011;5961;42.640;23.380;2024-02-28T00:50:22;49.33;;;22.67;;
11807;SDS011;5961;42.640;23.380;2024-02-28T00:52:49;47.53;;;21.70;;
11807;SDS011;5961;42.640;23.380;2024-02-28T00:55:16;43.40;;;22.73;;
11807;SDS011;5961;42.640;23.380;2024-02-28T00:57:43;46.63;;;22.67;;
11807;SDS011;5961;42.640;23.380;2024-02-28T01:00:10;50.80;;;23.20;;
11807;SDS011;5961;42.640;23.380;2024-02-28T01:02:39;44.00;;;21.40;;
11807;SDS011;5961;42.640;23.380;2024-02-28T01:05:06;45.07;;;22.47;;
11807;SDS011;5961;42.640;23.380;2024-02-28T01:07:35;44.80;;;21.20;;
11807;SDS011;5961;42.640;23.380;2024-02-28T01:10:01;52.57;;;22.90;;
11807;SDS011;5961;42.640;23.380;2024-02-28T01:12:29;55.70;;;23.20;;
11807;SDS011;5961;42.640;23.380;2024-02-28T01:14:55;45.93;;;22.33;;
11807;SDS011;5961;42.640;23.380;2024-02-28T01:17:22;52.67;;;22.87;;
11807;SDS011;5961;42.640;23.380;2024-02-28T01:19:49;45.17;;;22.60;;
11807;SDS011;5961;42.640;23.380;2024-02-28T01:24:46;49.10;;;23.43;;
11807;SDS011;5961;42.640;23.380;2024-02-28T01:27:13;46.93;;;23.27;;
11807;SDS011;5961;42.640;23.380;2024-02-28T01:29:39;48.57;;;23.10;;
11807;SDS011;5961;42.640;23.380;2024-02-28T01:32:06;46.33;;;22.60;;
11807;SDS011;5961;42.640;23.380;2024-02-28T01:34:33;51.03;;;22.67;;
11807;SDS011;5961;42.640;23.380;2024-02-28T01:37:00;52.83;;;24.07;;
11807;SDS011;5961;42.640;23.380;2024-02-28T01:39:26;45.13;;;23.37;;
11807;SDS011;5961;42.640;23.380;2024-02-28T01:41:54;51.40;;;23.87;;
11807;SDS011;5961;42.640;23.380;2024-02-28T01:44:22;47.37;;;23.00;;
11807;SDS011;5961;42.640;23.380;2024-02-28T01:46:49;54.80;;;23.53;;
11807;SDS011;5961;42.640;23.380;2024-02-28T01:49:16;47.90;;;22.30;;
11807;SDS011;5961;42.640;23.380;2024-02-28T01:51:44;50.07;;;23.73;;
11807;SDS011;5961;42.640;23.380;2024-02-28T01:54:11;47.90;;;22.90;;
11807;SDS011;5961;42.640;23.380;2024-02-28T01:56:38;47.23;;;22.30;;
11807;SDS011;5961;42.640;23.380;2024-02-28T01:59:07;44.27;;;21.87;;
11807;SDS011;5961;42.640;23.380;2024-02-28T02:01:36;49.57;;;23.90;;
11807;SDS011;5961;42.640;23.380;2024-02-28T02:04:03;55.07;;;22.83;;
11807;SDS011;5961;42.640;23.380;2024-02-28T02:06:30;51.03;;;23.03;;
11807;SDS011;5961;42.640;23.380;2024-02-28T02:08:57;48.23;;;24.13;;
11807;SDS011;5961;42.640;23.380;2024-02-28T02:11:24;48.87;;;22.60;;
11807;SDS011;5961;42.640;23.380;2024-02-28T02:13:51;44.70;;;23.83;;
11807;SDS011;5961;42.640;23.380;2024-02-28T02:16:20;47.00;;;22.87;;
11807;SDS011;5961;42.640;23.380;2024-02-28T02:18:51;46.87;;;23.40;;
11807;SDS011;5961;42.640;23.380;2024-02-28T02:21:18;51.67;;;22.63;;
11807;SDS011;5961;42.640;23.380;2024-02-28T02:23:47;46.43;;;23.00;;
11807;SDS011;5961;42.640;23.380;2024-02-28T02:26:14;49.20;;;22.90;;
11807;SDS011;5961;42.640;23.380;2024-02-28T02:28:41;50.17;;;23.57;;
11807;SDS011;5961;42.640;23.380;2024-02-28T02:31:07;51.30;;;23.27;;
11807;SDS011;5961;42.640;23.380;2024-02-28T02:33:34;54.23;;;24.00;;
11807;SDS011;5961;42.640;23.380;2024-02-28T02:36:01;51.07;;;23.17;;
11807;SDS011;5961;42.640;23.380;2024-02-28T02:38:27;48.07;;;23.03;;
11807;SDS011;5961;42.640;23.380;2024-02-28T02:40:55;48.27;;;22.50;;
11807;SDS011;5961;42.640;23.380;2024-02-28T02:43:22;48.83;;;22.90;;
11807;SDS011;5961;42.640;23.380;2024-02-28T02:45:49;47.67;;;21.87;;
11807;SDS011;5961;42.640;23.380;2024-02-28T02:48:16;43.73;;;21.93;;
11807;SDS011;5961;42.640;23.380;2024-02-28T02:50:42;45.67;;;21.63;;
11807;SDS011;5961;42.640;23.380;2024-02-28T02:53:10;47.87;;;22.87;;
11807;SDS011;5961;42.640;23.380;2024-02-28T02:55:37;49.63;;;22.73;;
11807;SDS011;5961;42.640;23.380;2024-02-28T02:58:05;46.37;;;23.50;;
11807;SDS011;5961;42.640;23.380;2024-02-28T03:00:32;52.53;;;23.37;;
11807;SDS011;5961;42.640;23.380;2024-02-28T03:02:58;47.53;;;22.60;;
11807;SDS011;5961;42.640;23.380;2024-02-28T03:05:25;51.00;;;24.60;;
11807;SDS011;5961;42.640;23.380;2024-02-28T03:07:52;55.30;;;22.70;;
11807;SDS011;5961;42.640;23.380;2024-02-28T03:10:18;46.13;;;23.17;;
11807;SDS011;5961;42.640;23.380;2024-02-28T03:12:45;53.37;;;22.87;;
11807;SDS011;5961;42.640;23.380;2024-02-28T03:15:13;47.43;;;22.23;;
11807;SDS011;5961;42.640;23.380;2024-02-28T03:17:40;49.17;;;23.37;;
11807;SDS011;5961;42.640;23.380;2024-02-28T03:20:07;52.10;;;23.83;;
11807;SDS011;5961;42.640;23.380;2024-02-28T03:22:34;50.13;;;22.97;;
11807;SDS011;5961;42.640;23.380;2024-02-28T03:25:01;49.10;;;22.37;;
11807;SDS011;5961;42.640;23.380;2024-02-28T03:27:28;48.80;;;23.53;;
11807;SDS011;5961;42.640;23.380;2024-02-28T03:29:54;46.23;;;23.67;;
11807;SDS011;5961;42.640;23.380;2024-02-28T03:32:23;48.03;;;23.13;;
11807;SDS011;5961;42.640;23.380;2024-02-28T03:34:50;48.10;;;22.10;;
11807;SDS011;5961;42.640;23.380;2024-02-28T03:37:16;48.47;;;22.53;;
11807;SDS011;5961;42.640;23.380;2024-02-28T03:39:43;47.13;;;22.47;;
11807;SDS011;5961;42.640;23.380;2024-02-28T03:42:10;49.47;;;22.40;;
11807;SDS011;5961;42.640;23.380;2024-02-28T03:44:36;45.87;;;21.90;;
11807;SDS011;5961;42.640;23.380;2024-02-28T03:47:03;50.67;;;23.47;;
11807;SDS011;5961;42.640;23.380;2024-02-28T03:49:31;47.70;;;22.63;;
11807;SDS011;5961;42.640;23.380;2024-02-28T03:51:58;50.80;;;22.70;;
11807;SDS011;5961;42.640;23.380;2024-02-28T03:54:26;51.97;;;23.70;;
11807;SDS011;5961;42.640;23.380;2024-02-28T03:56:53;44.87;;;21.97;;
11807;SDS011;5961;42.640;23.380;2024-02-28T03:59:19;46.53;;;23.17;;
11807;SDS011;5961;42.640;23.380;2024-02-28T04:01:46;51.57;;;23.73;;
11807;SDS011;5961;42.640;23.380;2024-02-28T04:04:13;57.77;;;23.83;;
11807;SDS011;5961;42.640;23.380;2024-02-28T04:06:41;50.37;;;23.03;;
11807;SDS011;5961;42.640;23.380;2024-02-28T04:09:07;51.90;;;24.63;;
11807;SDS011;5961;42.640;23.380;2024-02-28T04:11:34;55.00;;;23.67;;
11807;SDS011;5961;42.640;23.380;2024-02-28T04:14:03;52.47;;;23.80;;
11807;SDS011;5961;42.640;23.380;2024-02-28T04:16:30;55.13;;;24.43;;
11807;SDS011;5961;42.640;23.380;2024-02-28T04:18:56;54.90;;;23.53;;
11807;SDS011;5961;42.640;23.380;2024-02-28T04:21:23;52.80;;;24.63;;
11807;SDS011;5961;42.640;23.380;2024-02-28T04:23:51;55.47;;;23.57;;
11807;SDS011;5961;42.640;23.380;2024-02-28T04:26:18;57.87;;;24.97;;
11807;SDS011;5961;42.640;23.380;2024-02-28T04:28:44;60.20;;;24.93;;
11807;SDS011;5961;42.640;23.380;2024-02-28T04:31:11;54.03;;;24.77;;
11807;SDS011;5961;42.640;23.380;2024-02-28T04:33:38;59.97;;;24.07;;
11807;SDS011;5961;42.640;23.380;2024-02-28T04:36:04;61.60;;;24.90;;
11807;SDS011;5961;42.640;23.380;2024-02-28T04:38:31;47.50;;;23.40;;
11807;SDS011;5961;42.640;23.380;2024-02-28T04:40:59;53.40;;;24.53;;
11807;SDS011;5961;42.640;23.380;2024-02-28T04:43:26;48.60;;;23.70;;
11807;SDS011;5961;42.640;23.380;2024-02-28T04:45:52;55.43;;;23.83;;
11807;SDS011;5961;42.640;23.380;2024-02-28T04:48:19;50.07;;;22.67;;
11807;SDS011;5961;42.640;23.380;2024-02-28T04:50:46;59.20;;;24.53;;
11807;SDS011;5961;42.640;23.380;2024-02-28T04:53:12;59.77;;;23.73;;
11807;SDS011;5961;42.640;23.380;2024-02-28T04:55:39;50.20;;;21.87;;
11807;SDS011;5961;42.640;23.380;2024-02-28T04:58:07;49.93;;;22.13;;
11807;SDS011;5961;42.640;23.380;2024-02-28T05:00:34;46.17;;;22.50;;
11807;SDS011;5961;42.640;23.380;2024-02-28T05:03:00;47.97;;;23.27;;
11807;SDS011;5961;42.640;23.380;2024-02-28T05:05:27;46.67;;;22.43;;
11807;SDS011;5961;42.640;23.380;2024-02-28T05:07:54;46.00;;;22.33;;
11807;SDS011;5961;42.640;23.380;2024-02-28T05:10:20;54.73;;;22.13;;
11807;SDS011;5961;42.640;23.380;2024-02-28T05:12:47;54.13;;;23.53;;
11807;SDS011;5961;42.640;23.380;2024-02-28T05:15:15;50.67;;;23.37;;
11807;SDS011;5961;42.640;23.380;2024-02-28T05:17:42;55.90;;;23.20;;
11807;SDS011;5961;42.640;23.380;2024-02-28T05:20:09;50.27;;;24.30;;
11807;SDS011;5961;42.640;23.380;2024-02-28T05:22:37;49.60;;;23.30;;
11807;SDS011;5961;42.640;23.380;2024-02-28T05:25:05;47.63;;;21.73;;
11807;SDS011;5961;42.640;23.380;2024-02-28T05:27:32;51.77;;;22.87;;
11807;SDS011;5961;42.640;23.380;2024-02-28T05:29:59;52.17;;;24.10;;
11807;SDS011;5961;42.640;23.380;2024-02-28T05:32:32;51.83;;;22.90;;
11807;SDS011;5961;42.640;23.380;2024-02-28T05:34:58;47.07;;;22.13;;
11807;SDS011;5961;42.640;23.380;2024-02-28T05:37:25;50.63;;;23.00;;
11807;SDS011;5961;42.640;23.380;2024-02-28T05:39:52;46.70;;;22.97;;
11807;SDS011;5961;42.640;23.380;2024-02-28T05:42:19;47.07;;;22.90;;
11807;SDS011;5961;42.640;23.380;2024-02-28T05:44:47;50.20;;;22.53;;
11807;SDS011;5961;42.640;23.380;2024-02-28T05:47:14;54.73;;;24.37;;
11807;SDS011;5961;42.640;23.380;2024-02-28T05:49:42;49.40;;;22.67;;
11807;SDS011;5961;42.640;23.380;2024-02-28T05:52:09;48.63;;;21.87;;
11807;SDS011;5961;42.640;23.380;2024-02-28T05:54:36;49.30;;;21.47;;
11807;SDS011;5961;42.640;23.380;2024-02-28T05:57:03;49.07;;;21.10;;
11807;SDS011;5961;42.640;23.380;2024-02-28T05:59:29;48.33;;;21.87;;
11807;SDS011;5961;42.640;23.380;2024-02-28T06:01:56;44.90;;;21.70;;
11807;SDS011;5961;42.640;23.380;2024-02-28T06:04:23;46.73;;;22.20;;
11807;SDS011;5961;42.640;23.380;2024-02-28T06:06:51;48.93;;;22.80;;
11807;SDS011;5961;42.640;23.380;2024-02-28T06:09:18;50.77;;;23.07;;
11807;SDS011;5961;42.640;23.380;2024-02-28T06:11:45;46.47;;;22.17;;
11807;SDS011;5961;42.640;23.380;2024-02-28T06:14:11;50.53;;;22.50;;
11807;SDS011;5961;42.640;23.380;2024-02-28T06:16:38;51.63;;;22.00;;
11807;SDS011;5961;42.640;23.380;2024-02-28T06:19:04;48.70;;;23.00;;
11807;SDS011;5961;42.640;23.380;2024-02-28T06:24:18;41.53;;;20.57;;
11807;SDS011;5961;42.640;23.380;2024-02-28T06:26:44;46.33;;;21.77;;
11807;SDS011;5961;42.640;23.380;2024-02-28T06:29:11;51.60;;;23.23;;
11807;SDS011;5961;42.640;23.380;2024-02-28T06:31:38;46.60;;;22.80;;
11807;SDS011;5961;42.640;23.380;2024-02-28T06:34:05;53.87;;;22.90;;
11807;SDS011;5961;42.640;23.380;2024-02-28T06:36:31;54.60;;;24.83;;
11807;SDS011;5961;42.640;23.380;2024-02-28T06:38:59;53.67;;;23.27;;
11807;SDS011;5961;42.640;23.380;2024-02-28T06:41:26;50.53;;;23.10;;
11807;SDS011;5961;42.640;23.380;2024-02-28T06:43:53;46.73;;;23.57;;
11807;SDS011;5961;42.640;23.380;2024-02-28T06:46:20;53.43;;;23.47;;
11807;SDS011;5961;42.640;23.380;2024-02-28T06:48:46;51.63;;;24.20;;
11807;SDS011;5961;42.640;23.380;2024-02-28T06:51:13;56.73;;;23.30;;
11807;SDS011;5961;42.640;23.380;2024-02-28T06:53:42;54.97;;;23.67;;
11807;SDS011;5961;42.640;23.380;2024-02-28T06:56:10;53.23;;;24.63;;
11807;SDS011;5961;42.640;23.380;2024-02-28T06:58:37;50.10;;;23.30;;
11807;SDS011;5961;42.640;23.380;2024-02-28T07:01:03;54.93;;;23.07;;
11807;SDS011;5961;42.640;23.380;2024-02-28T07:03:30;53.97;;;23.90;;
11807;SDS011;5961;42.640;23.380;2024-02-28T07:05:57;53.60;;;23.73;;
11807;SDS011;5961;42.640;23.380;2024-02-28T07:08:23;49.83;;;22.70;;
11807;SDS011;5961;42.640;23.380;2024-02-28T07:10:50;49.27;;;24.03;;
11807;SDS011;5961;42.640;23.380;2024-02-28T07:13:20;50.97;;;24.00;;
11807;SDS011;5961;42.640;23.380;2024-02-28T07:15:47;50.93;;;24.60;;
11807;SDS011;5961;42.640;23.380;2024-02-28T07:18:14;52.33;;;23.80;;
11807;SDS011;5961;42.640;23.380;2024-02-28T07:20:40;56.00;;;24.30;;
11807;SDS011;5961;42.640;23.380;2024-02-28T07:23:07;53.43;;;23.53;;
11807;SDS011;5961;42.640;23.380;2024-02-28T07:25:34;50.87;;;23.93;;
11807;SDS011;5961;42.640;23.380;2024-02-28T07:28:01;47.43;;;23.17;;
11807;SDS011;5961;42.640;23.380;2024-02-28T07:30:30;50.37;;;23.40;;
11807;SDS011;5961;42.640;23.380;2024-02-28T07:32:56;48.30;;;23.27;;
11807;SDS011;5961;42.640;23.380;2024-02-28T07:35:23;53.87;;;24.20;;
11807;SDS011;5961;42.640;23.380;2024-02-28T07:37:50;57.37;;;23.47;;
11807;SDS011;5961;42.640;23.380;2024-02-28T07:40:16;48.77;;;23.57;;
11807;SDS011;5961;42.640;23.380;2024-02-28T07:42:43;51.83;;;23.67;;
11807;SDS011;5961;42.640;23.380;2024-02-28T07:45:10;49.30;;;23.50;;
11807;SDS011;5961;42.640;23.380;2024-02-28T07:47:38;45.87;;;23.33;;
11807;SDS011;5961;42.640;23.380;2024-02-28T07:50:07;52.53;;;24.43;;
11807;SDS011;5961;42.640;23.380;2024-02-28T07:52:33;58.60;;;24.73;;
11807;SDS011;5961;42.640;23.380;2024-02-28T07:55:02;55.53;;;25.70;;
11807;SDS011;5961;42.640;23.380;2024-02-28T07:57:30;53.80;;;24.83;;
11807;SDS011;5961;42.640;23.380;2024-02-28T07:59:58;53.30;;;24.30;;
11807;SDS011;5961;42.640;23.380;2024-02-28T08:02:24;49.10;;;23.47;;
11807;SDS011;5961;42.640;23.380;2024-02-28T08:04:52;57.07;;;25.97;;
11807;SDS011;5961;42.640;23.380;2024-02-28T08:07:19;52.63;;;26.60;;
11807;SDS011;5961;42.640;23.380;2024-02-28T08:09:46;51.77;;;24.60;;
11807;SDS011;5961;42.640;23.380;2024-02-28T08:12:12;49.07;;;23.83;;
11807;SDS011;5961;42.640;23.380;2024-02-28T08:14:39;45.00;;;22.50;;
11807;SDS011;5961;42.640;23.380;2024-02-28T08:17:06;44.10;;;21.93;;
11807;SDS011;5961;42.640;23.380;2024-02-28T08:19:32;47.97;;;22.37;;
11807;SDS011;5961;42.640;23.380;2024-02-28T08:22:01;49.63;;;24.13;;
11807;SDS011;5961;42.640;23.380;2024-02-28T08:24:28;48.47;;;21.90;;
11807;SDS011;5961;42.640;23.380;2024-02-28T08:26:55;55.80;;;21.30;;
11807;SDS011;5961;42.640;23.380;2024-02-28T08:29:21;41.27;;;20.40;;
11807;SDS011;5961;42.640;23.380;2024-02-28T08:31:48;43.63;;;20.47;;
11807;SDS011;5961;42.640;23.380;2024-02-28T08:34:15;42.20;;;19.97;;
11807;SDS011;5961;42.640;23.380;2024-02-28T08:36:42;39.70;;;19.73;;
11807;SDS011;5961;42.640;23.380;2024-02-28T08:39:10;37.93;;;19.47;;
11807;SDS011;5961;42.640;23.380;2024-02-28T08:41:43;39.83;;;19.80;;
11807;SDS011;5961;42.640;23.380;2024-02-28T08:44:11;39.53;;;19.87;;
11807;SDS011;5961;42.640;23.380;2024-02-28T08:46:37;39.27;;;19.57;;
11807;SDS011;5961;42.640;23.380;2024-02-28T08:49:04;43.17;;;21.47;;
11807;SDS011;5961;42.640;23.380;2024-02-28T08:51:31;49.60;;;21.10;;
11807;SDS011;5961;42.640;23.380;2024-02-28T08:53:57;43.57;;;21.13;;
11807;SDS011;5961;42.640;23.380;2024-02-28T08:56:26;43.47;;;20.87;;
11807;SDS011;5961;42.640;23.380;2024-02-28T08:58:52;43.70;;;21.00;;
11807;SDS011;5961;42.640;23.380;2024-02-28T09:01:19;47.40;;;21.77;;
11807;SDS011;5961;42.640;23.380;2024-02-28T09:03:46;40.43;;;21.30;;
11807;SDS011;5961;42.640;23.380;2024-02-28T09:06:13;43.93;;;22.67;;
11807;SDS011;5961;42.640;23.380;2024-02-28T09:08:40;49.97;;;22.93;;
11807;SDS011;5961;42.640;23.380;2024-02-28T09:11:07;51.70;;;23.23;;
11807;SDS011;5961;42.640;23.380;2024-02-28T09:13:35;44.30;;;20.47;;
11807;SDS011;5961;42.640;23.380;2024-02-28T09:16:02;40.20;;;20.53;;
11807;SDS011;5961;42.640;23.380;2024-02-28T09:18:29;40.83;;;20.40;;
11807;SDS011;5961;42.640;23.380;2024-02-28T09:20:55;40.73;;;20.27;;
11807;SDS011;5961;42.640;23.380;2024-02-28T09:23:22;50.07;;;23.67;;
11807;SDS011;5961;42.640;23.380;2024-02-28T09:25:49;38.93;;;18.53;;
11807;SDS011;5961;42.640;23.380;2024-02-28T09:28:16;49.07;;;21.37;;
11807;SDS011;5961;42.640;23.380;2024-02-28T09:30:44;42.70;;;21.53;;
11807;SDS011;5961;42.640;23.380;2024-02-28T09:33:12;46.00;;;20.53;;
11807;SDS011;5961;42.640;23.380;2024-02-28T09:35:39;44.17;;;20.23;;
11807;SDS011;5961;42.640;23.380;2024-02-28T09:38:06;42.40;;;21.93;;
11807;SDS011;5961;42.640;23.380;2024-02-28T09:40:33;43.77;;;20.97;;
11807;SDS011;5961;42.640;23.380;2024-02-28T09:43:00;46.73;;;22.50;;
11807;SDS011;5961;42.640;23.380;2024-02-28T09:45:28;48.73;;;21.27;;
11807;SDS011;5961;42.640;23.380;2024-02-28T09:47:58;44.93;;;21.87;;
11807;SDS011;5961;42.640;23.380;2024-02-28T09:50:26;43.30;;;22.03;;
11807;SDS011;5961;42.640;23.380;2024-02-28T09:52:53;39.77;;;17.97;;
11807;SDS011;5961;42.640;23.380;2024-02-28T09:55:20;39.60;;;18.83;;
11807;SDS011;5961;42.640;23.380;2024-02-28T09:57:47;38.43;;;18.17;;
11807;SDS011;5961;42.640;23.380;2024-02-28T10:00:15;36.53;;;18.23;;
11807;SDS011;5961;42.640;23.380;2024-02-28T10:02:45;36.83;;;18.23;;
11807;SDS011;5961;42.640;23.380;2024-02-28T10:05:15;43.57;;;19.67;;
11807;SDS011;5961;42.640;23.380;2024-02-28T10:07:43;38.43;;;19.33;;
11807;SDS011;5961;42.640;23.380;2024-02-28T10:10:10;34.97;;;17.60;;
11807;SDS011;5961;42.640;23.380;2024-02-28T10:12:40;33.73;;;16.30;;
11807;SDS011;5961;42.640;23.380;2024-02-28T10:15:07;35.53;;;17.20;;
11807;SDS011;5961;42.640;23.380;2024-02-28T10:17:35;36.70;;;16.17;;
11807;SDS011;5961;42.640;23.380;2024-02-28T10:20:02;36.53;;;18.27;;
11807;SDS011;5961;42.640;23.380;2024-02-28T10:22:34;33.40;;;17.43;;
11807;SDS011;5961;42.640;23.380;2024-02-28T10:25:01;29.80;;;16.07;;
11807;SDS011;5961;42.640;23.380;2024-02-28T10:27:31;28.03;;;15.47;;
11807;SDS011;5961;42.640;23.380;2024-02-28T10:29:58;32.43;;;15.70;;
11807;SDS011;5961;42.640;23.380;2024-02-28T10:32:25;30.53;;;15.63;;
11807;SDS011;5961;42.640;23.380;2024-02-28T10:34:51;31.47;;;15.73;;
11807;SDS011;5961;42.640;23.380;2024-02-28T10:37:20;35.07;;;15.40;;
11807;SDS011;5961;42.640;23.380;2024-02-28T10:39:49;30.77;;;15.97;;
11807;SDS011;5961;42.640;23.380;2024-02-28T10:42:18;36.67;;;16.37;;
11807;SDS011;5961;42.640;23.380;2024-02-28T10:44:47;25.87;;;14.57;;
11807;SDS011;5961;42.640;23.380;2024-02-28T10:47:17;33.10;;;15.63;;
11807;SDS011;5961;42.640;23.380;2024-02-28T10:49:44;32.50;;;16.33;;
11807;SDS011;5961;42.640;23.380;2024-02-28T10:52:11;30.67;;;15.17;;
11807;SDS011;5961;42.640;23.380;2024-02-28T10:54:39;34.83;;;15.23;;
11807;SDS011;5961;42.640;23.380;2024-02-28T10:57:08;30.70;;;14.10;;
11807;SDS011;5961;42.640;23.380;2024-02-28T10:59:38;23.60;;;12.07;;
11807;SDS011;5961;42.640;23.380;2024-02-28T11:02:06;27.97;;;13.50;;
11807;SDS011;5961;42.640;23.380;2024-02-28T11:04:33;27.10;;;12.93;;
11807;SDS011;5961;42.640;23.380;2024-02-28T11:07:00;23.60;;;12.90;;
11807;SDS011;5961;42.640;23.380;2024-02-28T11:09:28;26.87;;;13.30;;
11807;SDS011;5961;42.640;23.380;2024-02-28T11:11:57;25.07;;;13.83;;
11807;SDS011;5961;42.640;23.380;2024-02-28T11:14:25;27.13;;;14.67;;
11807;SDS011;5961;42.640;23.380;2024-02-28T11:16:59;24.73;;;12.77;;
11807;SDS011;5961;42.640;23.380;2024-02-28T11:19:27;23.13;;;12.37;;
11807;SDS011;5961;42.640;23.380;2024-02-28T11:21:55;24.67;;;12.43;;
11807;SDS011;5961;42.640;23.380;2024-02-28T11:24:24;24.13;;;12.00;;
11807;SDS011;5961;42.640;23.380;2024-02-28T11:26:55;22.20;;;11.33;;
11807;SDS011;5961;42.640;23.380;2024-02-28T11:29:23;21.00;;;10.10;;
11807;SDS011;5961;42.640;23.380;2024-02-28T11:31:54;26.23;;;11.90;;
11807;SDS011;5961;42.640;23.380;2024-02-28T11:34:21;25.80;;;11.27;;
11807;SDS011;5961;42.640;23.380;2024-02-28T11:36:48;19.53;;;10.87;;
11807;SDS011;5961;42.640;23.380;2024-02-28T11:39:15;24.33;;;11.20;;
11807;SDS011;5961;42.640;23.380;2024-02-28T11:41:42;20.10;;;10.77;;
11807;SDS011;5961;42.640;23.380;2024-02-28T11:44:11;19.87;;;10.37;;
11807;SDS011;5961;42.640;23.380;2024-02-28T11:46:43;20.03;;;9.57;;
11807;SDS011;5961;42.640;23.380;2024-02-28T11:49:11;18.13;;;10.13;;
11807;SDS011;5961;42.640;23.380;2024-02-28T11:51:39;19.97;;;10.53;;
11807;SDS011;5961;42.640;23.380;2024-02-28T11:54:07;22.80;;;12.70;;
11807;SDS011;5961;42.640;23.380;2024-02-28T11:56:34;23.17;;;11.33;;
11807;SDS011;5961;42.640;23.380;2024-02-28T11:59:00;17.27;;;10.50;;
11807;SDS011;5961;42.640;23.380;2024-02-28T12:01:35;17.80;;;10.20;;
11807;SDS011;5961;42.640;23.380;2024-02-28T12:04:04;35.13;;;17.03;;
11807;SDS011;5961;42.640;23.380;2024-02-28T12:06:32;36.97;;;21.23;;
11807;SDS011;5961;42.640;23.380;2024-02-28T12:08:59;26.37;;;15.07;;
11807;SDS011;5961;42.640;23.380;2024-02-28T12:11:26;26.57;;;13.57;;
11807;SDS011;5961;42.640;23.380;2024-02-28T12:13:54;24.17;;;13.13;;
11807;SDS011;5961;42.640;23.380;2024-02-28T12:16:22;23.70;;;13.27;;
11807;SDS011;5961;42.640;23.380;2024-02-28T12:18:49;26.60;;;12.77;;
11807;SDS011;5961;42.640;23.380;2024-02-28T12:21:17;24.63;;;12.80;;
11807;SDS011;5961;42.640;23.380;2024-02-28T12:23:44;23.53;;;12.47;;
11807;SDS011;5961;42.640;23.380;2024-02-28T12:26:11;26.03;;;13.87;;
11807;SDS011;5961;42.640;23.380;2024-02-28T12:28:37;27.37;;;13.60;;
11807;SDS011;5961;42.640;23.380;2024-02-28T12:31:04;32.40;;;16.80;;
11807;SDS011;5961;42.640;23.380;2024-02-28T12:33:34;26.87;;;14.97;;
11807;SDS011;5961;42.640;23.380;2024-02-28T12:36:00;24.80;;;12.80;;
11807;SDS011;5961;42.640;23.380;2024-02-28T12:38:30;22.33;;;11.67;;
11807;SDS011;5961;42.640;23.380;2024-02-28T12:40:57;25.30;;;11.97;;
11807;SDS011;5961;42.640;23.380;2024-02-28T12:43:24;22.00;;;11.37;;
11807;SDS011;5961;42.640;23.380;2024-02-28T12:45:51;18.17;;;10.80;;
11807;SDS011;5961;42.640;23.380;2024-02-28T12:48:18;25.92;;;11.25;;
11807;SDS011;5961;42.640;23.380;2024-02-28T12:50:44;20.10;;;11.32;;
11807;SDS011;5961;42.640;23.380;2024-02-28T12:53:11;22.92;;;11.98;;
11807;SDS011;5961;42.640;23.380;2024-02-28T12:55:40;22.52;;;11.82;;
11807;SDS011;5961;42.640;23.380;2024-02-28T12:58:09;21.08;;;12.55;;
11807;SDS011;5961;42.640;23.380;2024-02-28T13:00:35;21.35;;;10.70;;
11807;SDS011;5961;42.640;23.380;2024-02-28T13:03:02;18.85;;;10.50;;
11807;SDS011;5961;42.640;23.380;2024-02-28T13:05:31;19.05;;;10.60;;
11807;SDS011;5961;42.640;23.380;2024-02-28T13:07:58;24.40;;;12.57;;
11807;SDS011;5961;42.640;23.380;2024-02-28T13:10:24;19.52;;;9.82;;
11807;SDS011;5961;42.640;23.380;2024-02-28T13:12:53;19.88;;;9.90;;
11807;SDS011;5961;42.640;23.380;2024-02-28T13:15:20;20.40;;;10.18;;
11807;SDS011;5961;42.640;23.380;2024-02-28T13:17:47;20.25;;;10.57;;
11807;SDS011;5961;42.640;23.380;2024-02-28T13:20:14;19.25;;;9.55;;
11807;SDS011;5961;42.640;23.380;2024-02-28T13:22:41;23.88;;;10.63;;
11807;SDS011;5961;42.640;23.380;2024-02-28T13:25:08;21.33;;;10.15;;
11807;SDS011;5961;42.640;23.380;2024-02-28T13:27:35;20.13;;;8.55;;
11807;SDS011;5961;42.640;23.380;2024-02-28T13:30:04;17.45;;;9.77;;
11807;SDS011;5961;42.640;23.380;2024-02-28T13:32:32;28.48;;;10.00;;
11807;SDS011;5961;42.640;23.380;2024-02-28T13:34:59;15.30;;;8.55;;
11807;SDS011;5961;42.640;23.380;2024-02-28T13:37:26;18.40;;;9.97;;
11807;SDS011;5961;42.640;23.380;2024-02-28T13:39:53;21.90;;;8.67;;
11807;SDS011;5961;42.640;23.380;2024-02-28T13:42:19;20.73;;;10.30;;
11807;SDS011;5961;42.640;23.380;2024-02-28T13:44:46;24.42;;;10.68;;
11807;SDS011;5961;42.640;23.380;2024-02-28T13:47:14;23.90;;;9.80;;
11807;SDS011;5961;42.640;23.380;2024-02-28T13:49:41;23.27;;;11.07;;
11807;SDS011;5961;42.640;23.380;2024-02-28T13:52:08;29.07;;;13.83;;
11807;SDS011;5961;42.640;23.380;2024-02-28T13:54:35;32.57;;;15.50;;
11807;SDS011;5961;42.640;23.380;2024-02-28T13:57:01;24.00;;;11.13;;
11807;SDS011;5961;42.640;23.380;2024-02-28T13:59:29;21.40;;;11.63;;
11807;SDS011;5961;42.640;23.380;2024-02-28T14:01:56;21.17;;;10.83;;
11807;SDS011;5961;42.640;23.380;2024-02-28T14:04:26;19.43;;;10.30;;
11807;SDS011;5961;42.640;23.380;2024-02-28T14:06:52;22.23;;;10.63;;
11807;SDS011;5961;42.640;23.380;2024-02-28T14:09:19;22.33;;;10.77;;
11807;SDS011;5961;42.640;23.380;2024-02-28T14:11:46;27.27;;;10.50;;
11807;SDS011;5961;42.640;23.380;2024-02-28T14:14:12;20.27;;;10.63;;
11807;SDS011;5961;42.640;23.380;2024-02-28T14:16:39;19.47;;;10.47;;
11807;SDS011;5961;42.640;23.380;2024-02-28T14:19:06;23.90;;;11.37;;
11807;SDS011;5961;42.640;23.380;2024-02-28T14:21:34;21.73;;;10.40;;
11807;SDS011;5961;42.640;23.380;2024-02-28T14:24:00;19.97;;;10.50;;
11807;SDS011;5961;42.640;23.380;2024-02-28T14:26:27;26.77;;;10.33;;